Terminal Aerodrome Forecast
Issued by NWS Mobile, AL

Home | Current Version | Previous Version | Text Only | Print | Product List | Glossary On
Versions: 1 2 3 4 5 6 7 8 9 10 11 12 13 14 15 16 17 18 19 20 21 22 23 24 25 26 27 28
376
FTUS44 KMOB 180527
TAFPNS
TAF
KPNS 180527Z 1806/1906 33010KT P6SM SKC
     FM182100 35007KT P6SM SKC
     FM190300 35004KT P6SM SKC=

USA.gov is the U.S. government's official web portal to all federal, state and local government web resources and services.